createdAt,value
2023-12-31T00:02:06.159Z,5.81
2023-12-31T00:04:32.701Z,5.83
2023-12-31T00:06:59.114Z,5.89
2023-12-31T00:09:25.551Z,5.88
2023-12-31T00:11:51.966Z,5.92
2023-12-31T00:14:18.413Z,5.95
2023-12-31T00:16:44.911Z,5.95
2023-12-31T00:19:11.720Z,6.07
2023-12-31T00:21:43.109Z,6.07
2023-12-31T00:24:09.979Z,6.06
2023-12-31T00:26:36.416Z,6.07
2023-12-31T00:29:02.801Z,6.06
2023-12-31T00:31:29.242Z,6.11
2023-12-31T00:33:58.655Z,6.11
2023-12-31T00:36:26.097Z,6.09
2023-12-31T00:38:54.468Z,6.04
2023-12-31T00:41:21.144Z,6.02
2023-12-31T00:43:47.639Z,6.05
2023-12-31T00:46:14.954Z,6.01
2023-12-31T00:48:41.578Z,6.03
2023-12-31T00:51:08.130Z,5.94
2023-12-31T00:53:35.261Z,5.94
2023-12-31T00:56:01.783Z,5.88
2023-12-31T00:58:28.272Z,5.80
2023-12-31T01:00:54.713Z,5.82
2023-12-31T01:03:21.307Z,5.79
2023-12-31T01:05:47.799Z,5.78
2023-12-31T01:08:14.508Z,5.77
2023-12-31T01:10:40.962Z,5.77
2023-12-31T01:13:07.514Z,5.77
2023-12-31T01:15:33.923Z,5.88
2023-12-31T01:18:00.448Z,5.92
2023-12-31T01:20:26.876Z,5.99
2023-12-31T01:22:53.351Z,6.02
2023-12-31T01:25:19.807Z,6.07
2023-12-31T01:27:46.279Z,6.10
2023-12-31T01:30:13.446Z,6.13
2023-12-31T01:32:39.947Z,6.18
2023-12-31T01:35:06.549Z,6.30
2023-12-31T01:37:32.970Z,6.36
2023-12-31T01:39:59.387Z,6.39
2023-12-31T01:42:25.828Z,6.39
2023-12-31T01:44:52.280Z,6.40
2023-12-31T01:47:19.632Z,6.48
2023-12-31T01:49:46.322Z,6.55
2023-12-31T01:52:13.871Z,6.54
2023-12-31T01:54:41.327Z,6.54
2023-12-31T01:57:08.234Z,6.59
2023-12-31T01:59:34.997Z,6.62
2023-12-31T02:02:01.466Z,6.69
2023-12-31T02:04:34.737Z,6.66
2023-12-31T02:07:02.119Z,6.64
2023-12-31T02:09:29.076Z,6.67
2023-12-31T02:11:56.348Z,6.63
2023-12-31T02:14:22.813Z,6.58
2023-12-31T02:16:49.242Z,6.63
2023-12-31T02:19:15.768Z,6.65
2023-12-31T02:21:42.400Z,6.62
2023-12-31T02:24:14.167Z,6.62
2023-12-31T02:26:41.245Z,6.57
2023-12-31T02:29:07.713Z,6.55
2023-12-31T02:31:35.293Z,6.60
2023-12-31T02:34:01.860Z,6.63
2023-12-31T02:36:28.512Z,6.59
2023-12-31T02:38:54.908Z,6.54
2023-12-31T02:41:21.583Z,6.42
2023-12-31T02:43:48.461Z,6.34
2023-12-31T02:46:15.139Z,6.27
2023-12-31T02:51:08.936Z,6.11
2023-12-31T02:53:35.315Z,6.11
2023-12-31T02:56:01.869Z,6.13
2023-12-31T02:58:28.508Z,6.09
2023-12-31T03:00:55.006Z,6.03
2023-12-31T03:03:21.454Z,5.97
2023-12-31T03:05:47.910Z,5.88
2023-12-31T03:08:14.367Z,5.85
2023-12-31T03:10:40.968Z,5.89
2023-12-31T03:13:07.547Z,5.94
2023-12-31T03:15:33.985Z,6.03
2023-12-31T03:18:00.547Z,6.09
2023-12-31T03:20:26.993Z,6.16
2023-12-31T03:22:53.671Z,6.09
2023-12-31T03:25:20.242Z,6.15
2023-12-31T03:27:46.868Z,6.11
2023-12-31T03:30:13.934Z,6.17
2023-12-31T03:32:41.434Z,6.14
2023-12-31T03:35:08.178Z,6.21
2023-12-31T03:37:34.717Z,6.20
2023-12-31T03:40:01.289Z,6.20
2023-12-31T03:42:27.854Z,6.23
2023-12-31T03:44:54.322Z,6.21
2023-12-31T03:47:20.889Z,6.17
2023-12-31T03:49:47.332Z,6.18
2023-12-31T03:52:13.844Z,6.19
2023-12-31T03:54:42.879Z,6.23
2023-12-31T03:57:09.577Z,6.29
2023-12-31T03:59:36.053Z,6.27
2023-12-31T04:02:02.669Z,6.27
2023-12-31T04:04:30.597Z,6.27
2023-12-31T04:06:57.412Z,6.27
2023-12-31T04:09:23.817Z,6.32
2023-12-31T04:11:50.232Z,6.37
2023-12-31T04:14:16.665Z,6.36
2023-12-31T04:16:43.223Z,6.33
2023-12-31T04:19:10.461Z,6.27
2023-12-31T04:21:36.905Z,6.26
2023-12-31T04:24:03.496Z,6.13
2023-12-31T04:26:29.872Z,6.10
2023-12-31T04:28:56.388Z,6.08
2023-12-31T04:31:23.258Z,6.04
2023-12-31T04:33:49.710Z,6.03
2023-12-31T04:36:16.099Z,6.01
2023-12-31T04:38:42.587Z,6.04
2023-12-31T04:41:08.955Z,5.96
2023-12-31T04:43:35.370Z,5.91
2023-12-31T04:46:05.656Z,5.87
2023-12-31T04:48:32.073Z,5.80
2023-12-31T04:50:58.470Z,5.76
2023-12-31T04:53:24.901Z,5.71
2023-12-31T04:55:51.377Z,5.63
2023-12-31T04:58:18.820Z,5.62
2023-12-31T05:00:45.314Z,5.63
2023-12-31T05:03:11.763Z,5.51
2023-12-31T05:05:38.836Z,5.51
2023-12-31T05:08:05.373Z,5.46
2023-12-31T05:10:31.786Z,5.50
2023-12-31T05:12:59.528Z,5.51
2023-12-31T05:15:26.194Z,5.52
2023-12-31T05:17:52.659Z,5.56
2023-12-31T05:20:19.215Z,5.58
2023-12-31T05:22:45.677Z,5.52
2023-12-31T05:25:12.220Z,5.44
2023-12-31T05:27:38.651Z,5.30
2023-12-31T05:30:06.835Z,5.24
2023-12-31T05:32:33.548Z,5.29
2023-12-31T05:34:59.983Z,5.27
2023-12-31T05:37:26.402Z,5.22
2023-12-31T05:39:52.970Z,5.23
2023-12-31T05:42:19.473Z,5.27
2023-12-31T05:44:45.881Z,5.30
2023-12-31T05:47:12.585Z,5.30
2023-12-31T05:49:39.096Z,5.31
2023-12-31T05:52:06.811Z,5.27
2023-12-31T05:54:33.249Z,5.27
2023-12-31T05:56:59.690Z,5.35
2023-12-31T05:59:26.081Z,5.36
2023-12-31T06:01:52.536Z,5.43
2023-12-31T06:04:19.236Z,5.43
2023-12-31T06:06:45.676Z,5.34
2023-12-31T06:09:13.045Z,5.32
2023-12-31T06:11:39.651Z,5.43
2023-12-31T06:14:06.748Z,5.38
2023-12-31T06:16:33.219Z,5.32
2023-12-31T06:18:59.678Z,5.32
2023-12-31T06:21:26.121Z,5.30
2023-12-31T06:23:52.558Z,5.27
2023-12-31T06:26:18.970Z,5.26
2023-12-31T06:28:45.421Z,5.22
2023-12-31T06:31:12.076Z,5.24
2023-12-31T06:33:38.613Z,5.30
2023-12-31T06:36:05.341Z,5.31
2023-12-31T06:38:31.753Z,5.33
2023-12-31T06:40:58.250Z,5.31
2023-12-31T06:43:24.707Z,5.32
2023-12-31T06:45:51.148Z,5.34
2023-12-31T06:48:17.775Z,5.26
2023-12-31T06:50:44.230Z,5.31
2023-12-31T06:53:10.694Z,5.30
2023-12-31T06:55:37.146Z,5.23
2023-12-31T06:58:03.677Z,5.23
2023-12-31T07:00:30.083Z,5.28
2023-12-31T07:02:56.699Z,5.27
2023-12-31T07:05:23.174Z,5.32
2023-12-31T07:07:49.669Z,5.36
2023-12-31T07:10:16.200Z,5.35
2023-12-31T07:12:42.688Z,5.37
2023-12-31T07:15:10.259Z,5.40
2023-12-31T07:20:05.486Z,5.52
2023-12-31T07:22:32.981Z,5.51
2023-12-31T07:25:01.250Z,5.51
2023-12-31T07:27:28.093Z,5.60
2023-12-31T07:29:54.482Z,5.58
2023-12-31T07:32:21.583Z,5.58
2023-12-31T07:34:48.122Z,5.61
2023-12-31T07:37:15.284Z,5.65
2023-12-31T07:39:42.607Z,5.68
2023-12-31T07:42:09.104Z,5.77
2023-12-31T07:44:35.518Z,5.80
2023-12-31T07:47:03.949Z,5.83
2023-12-31T07:49:31.508Z,5.99
2023-12-31T07:51:58.076Z,5.98
2023-12-31T07:54:26.721Z,6.09
2023-12-31T07:56:53.408Z,6.13
2023-12-31T07:59:19.893Z,6.13
2023-12-31T08:01:46.324Z,6.14
2023-12-31T08:04:12.753Z,6.07
2023-12-31T08:06:40.652Z,6.15
2023-12-31T08:09:08.261Z,6.18
2023-12-31T08:11:34.763Z,6.19
2023-12-31T08:14:01.329Z,6.27
2023-12-31T08:16:27.805Z,6.33
2023-12-31T08:18:54.261Z,6.35
2023-12-31T08:21:20.712Z,6.34
2023-12-31T08:23:48.252Z,6.43
2023-12-31T08:26:15.036Z,6.43
2023-12-31T08:28:41.552Z,6.47
2023-12-31T08:31:14.446Z,6.60
2023-12-31T08:33:40.886Z,6.61
2023-12-31T08:36:07.730Z,6.61
2023-12-31T08:38:34.297Z,6.59
2023-12-31T08:41:00.825Z,6.67
2023-12-31T08:43:28.339Z,6.68
2023-12-31T08:45:54.996Z,6.64
2023-12-31T08:48:21.968Z,6.68
2023-12-31T08:50:48.701Z,6.70
2023-12-31T08:53:15.094Z,6.75
2023-12-31T08:55:41.746Z,6.74
2023-12-31T08:58:08.182Z,6.77
2023-12-31T09:00:34.643Z,6.76
2023-12-31T09:03:01.134Z,6.80
2023-12-31T09:05:27.637Z,6.79
2023-12-31T09:07:54.152Z,6.77
2023-12-31T09:10:20.717Z,6.78
2023-12-31T09:12:48.430Z,6.81
2023-12-31T09:15:14.955Z,6.82
2023-12-31T09:17:41.677Z,6.85
2023-12-31T09:20:09.798Z,6.88
2023-12-31T09:22:37.072Z,6.96
2023-12-31T09:25:07.352Z,6.96
2023-12-31T09:27:34.025Z,7.04
2023-12-31T09:30:00.494Z,7.06
2023-12-31T09:32:27.110Z,7.07
2023-12-31T09:34:53.660Z,7.09
2023-12-31T09:37:20.451Z,7.17
2023-12-31T09:39:47.938Z,7.28
2023-12-31T09:42:18.997Z,7.28
2023-12-31T09:44:45.680Z,7.37
2023-12-31T09:47:13.210Z,7.38
2023-12-31T09:49:43.388Z,7.42
2023-12-31T09:52:10.427Z,7.43
2023-12-31T09:54:42.145Z,7.47
2023-12-31T09:57:13.000Z,7.51
2023-12-31T09:59:43.341Z,7.56
2023-12-31T10:02:18.412Z,7.64
2023-12-31T10:04:45.954Z,7.74
2023-12-31T10:07:13.673Z,7.77
2023-12-31T10:09:43.491Z,7.77
2023-12-31T10:12:10.196Z,7.81
2023-12-31T10:14:36.632Z,7.81
2023-12-31T10:17:08.744Z,7.81
2023-12-31T10:19:35.611Z,7.80
2023-12-31T10:22:06.002Z,7.84
2023-12-31T10:24:33.075Z,7.86
2023-12-31T10:27:04.596Z,7.93
2023-12-31T10:29:31.040Z,7.99
2023-12-31T10:31:57.731Z,8.08
2023-12-31T10:34:24.547Z,8.18
2023-12-31T10:37:02.282Z,8.37
2023-12-31T10:39:30.479Z,8.49
2023-12-31T10:42:04.978Z,8.57
2023-12-31T10:44:38.806Z,8.70
2023-12-31T10:47:07.452Z,8.76
2023-12-31T10:49:35.678Z,8.88
2023-12-31T10:52:04.919Z,9.05
2023-12-31T10:54:44.290Z,9.21
2023-12-31T10:57:11.712Z,9.25
2023-12-31T10:59:41.250Z,9.33
2023-12-31T11:02:15.675Z,9.39
2023-12-31T11:04:45.314Z,9.39
2023-12-31T11:07:15.411Z,9.38
2023-12-31T11:09:44.251Z,9.37
2023-12-31T11:12:12.177Z,9.29
2023-12-31T11:14:44.073Z,9.23
2023-12-31T11:17:40.164Z,9.18
2023-12-31T11:20:31.609Z,9.13
2023-12-31T11:23:12.455Z,9.09
2023-12-31T11:25:40.096Z,9.17
2023-12-31T11:28:07.489Z,9.26
2023-12-31T11:30:59.924Z,9.25
2023-12-31T11:33:28.862Z,9.22
2023-12-31T11:36:00.865Z,9.23
2023-12-31T11:38:28.215Z,9.06
2023-12-31T11:40:57.640Z,9.05
2023-12-31T11:43:24.558Z,9.09
2023-12-31T11:45:52.087Z,9.12
2023-12-31T11:48:23.245Z,9.10
2023-12-31T11:50:51.084Z,9.13
2023-12-31T11:53:17.597Z,9.12
2023-12-31T11:55:44.134Z,9.10
2023-12-31T11:58:11.192Z,9.07
2023-12-31T12:00:39.192Z,9.00
2023-12-31T12:03:09.155Z,9.07
2023-12-31T12:05:35.574Z,9.09
2023-12-31T12:08:04.546Z,9.08
2023-12-31T12:10:31.340Z,9.02
2023-12-31T12:13:01.408Z,9.04
2023-12-31T12:15:34.961Z,9.06
2023-12-31T12:18:01.524Z,9.09
2023-12-31T12:20:28.083Z,9.09
2023-12-31T12:22:54.755Z,9.06
2023-12-31T12:25:21.989Z,9.12
2023-12-31T12:27:48.487Z,9.18
2023-12-31T12:30:15.822Z,9.32
2023-12-31T12:32:48.341Z,9.34
2023-12-31T12:35:15.268Z,9.39
2023-12-31T12:37:43.091Z,9.45
2023-12-31T12:40:15.988Z,9.49
2023-12-31T12:42:46.396Z,9.50
2023-12-31T12:45:13.139Z,9.62
2023-12-31T12:47:42.242Z,9.75
2023-12-31T12:50:09.287Z,9.73
2023-12-31T12:52:35.805Z,9.78
2023-12-31T12:55:02.317Z,9.90
2023-12-31T12:57:28.837Z,10.04
2023-12-31T12:59:55.261Z,10.06
2023-12-31T13:02:21.939Z,10.06
2023-12-31T13:04:48.508Z,10.07
2023-12-31T13:07:15.911Z,10.09
2023-12-31T13:09:42.502Z,10.11
2023-12-31T13:12:09.548Z,10.04
2023-12-31T13:14:36.277Z,9.96
2023-12-31T13:17:03.670Z,9.86
2023-12-31T13:19:30.227Z,9.85
2023-12-31T13:21:56.755Z,9.77
2023-12-31T13:24:23.167Z,9.67
2023-12-31T13:26:49.550Z,9.60
2023-12-31T13:29:16.108Z,9.50
2023-12-31T13:31:42.566Z,9.47
2023-12-31T13:34:10.478Z,9.53
2023-12-31T13:36:37.119Z,9.47
2023-12-31T13:39:06.680Z,9.42
2023-12-31T13:41:33.323Z,9.40
2023-12-31T13:43:59.847Z,9.33
2023-12-31T13:46:26.391Z,9.36
2023-12-31T13:48:53.002Z,9.32
2023-12-31T13:51:20.966Z,9.38
2023-12-31T13:53:47.554Z,9.37
2023-12-31T13:56:14.086Z,9.30
2023-12-31T13:58:40.554Z,9.27
2023-12-31T14:01:07.106Z,9.23
2023-12-31T14:03:33.990Z,9.18
2023-12-31T14:06:00.506Z,9.20
2023-12-31T14:08:26.952Z,9.15
2023-12-31T14:10:53.639Z,9.11
2023-12-31T14:13:20.271Z,9.08
2023-12-31T14:15:46.746Z,9.08
2023-12-31T14:18:13.426Z,9.02
2023-12-31T14:20:39.928Z,9.12
2023-12-31T14:23:06.963Z,8.99
2023-12-31T14:25:33.729Z,8.82
2023-12-31T14:28:00.271Z,8.71
2023-12-31T14:30:26.731Z,8.60
2023-12-31T14:32:53.275Z,8.49
2023-12-31T14:35:19.805Z,8.45
2023-12-31T14:37:46.310Z,8.49
2023-12-31T14:40:12.944Z,8.43
2023-12-31T14:42:39.716Z,8.40
2023-12-31T14:45:07.294Z,8.39
2023-12-31T14:47:34.213Z,8.39
2023-12-31T14:50:00.809Z,8.33
2023-12-31T14:52:27.445Z,8.37
2023-12-31T14:54:53.912Z,8.32
2023-12-31T14:57:20.474Z,8.33
2023-12-31T14:59:46.863Z,8.30
2023-12-31T15:02:23.932Z,8.32
2023-12-31T15:05:00.613Z,8.26
2023-12-31T15:07:33.588Z,8.33
2023-12-31T15:09:59.990Z,8.36
2023-12-31T15:12:26.550Z,8.41
2023-12-31T15:14:54.033Z,8.38
2023-12-31T15:17:20.455Z,8.37
2023-12-31T15:19:46.921Z,8.36
2023-12-31T15:22:13.550Z,8.26
2023-12-31T15:24:39.954Z,8.26
2023-12-31T15:27:06.367Z,8.23
2023-12-31T15:29:32.807Z,8.24
2023-12-31T15:31:59.284Z,8.28
2023-12-31T15:34:27.040Z,8.34
2023-12-31T15:36:53.654Z,8.35
2023-12-31T15:39:20.602Z,8.44
2023-12-31T15:41:47.375Z,8.40
2023-12-31T15:44:15.010Z,8.26
2023-12-31T15:46:41.907Z,8.23
2023-12-31T15:49:08.787Z,8.02
2023-12-31T15:51:35.467Z,7.91
2023-12-31T15:54:01.935Z,7.84
2023-12-31T15:56:29.728Z,7.73
2023-12-31T15:58:58.609Z,7.61
2023-12-31T16:01:25.147Z,7.53
2023-12-31T16:03:51.566Z,7.38
2023-12-31T16:06:18.035Z,7.38
2023-12-31T16:08:44.507Z,7.38
2023-12-31T16:11:11.167Z,7.17
2023-12-31T16:13:38.317Z,6.99
2023-12-31T16:16:07.493Z,6.82
2023-12-31T16:18:35.239Z,6.69
2023-12-31T16:21:02.359Z,6.57
2023-12-31T16:23:28.767Z,6.48
2023-12-31T16:25:56.227Z,6.51
2023-12-31T16:28:22.717Z,6.51
2023-12-31T16:30:49.316Z,6.53
2023-12-31T16:33:15.896Z,6.53
2023-12-31T16:35:42.411Z,6.62
2023-12-31T16:38:09.059Z,6.67
2023-12-31T16:40:35.630Z,6.73
2023-12-31T16:43:05.971Z,6.82
2023-12-31T16:45:32.382Z,6.99
2023-12-31T16:48:01.775Z,7.10
2023-12-31T16:50:29.808Z,7.11
2023-12-31T16:52:56.257Z,7.21
2023-12-31T16:55:22.778Z,7.16
2023-12-31T16:57:49.349Z,7.18
2023-12-31T17:00:16.086Z,7.20
2023-12-31T17:02:42.497Z,7.21
2023-12-31T17:05:10.218Z,7.14
2023-12-31T17:07:36.775Z,7.06
2023-12-31T17:10:06.171Z,7.03
2023-12-31T17:12:33.276Z,7.00
2023-12-31T17:14:59.790Z,6.88
2023-12-31T17:17:26.264Z,6.92
2023-12-31T17:19:52.755Z,6.83
2023-12-31T17:22:19.220Z,6.78
2023-12-31T17:24:47.023Z,6.77
2023-12-31T17:27:14.193Z,6.70
2023-12-31T17:29:40.625Z,6.62
2023-12-31T17:32:08.963Z,6.67
2023-12-31T17:34:38.721Z,6.72
2023-12-31T17:37:07.073Z,6.56
2023-12-31T17:39:33.554Z,6.54
2023-12-31T17:42:00.250Z,6.33
2023-12-31T17:44:27.003Z,6.31
2023-12-31T17:46:53.599Z,6.23
2023-12-31T17:49:20.139Z,6.26
2023-12-31T17:51:46.746Z,6.13
2023-12-31T17:54:13.270Z,6.11
2023-12-31T17:56:40.929Z,6.06
2023-12-31T17:59:07.453Z,6.09
2023-12-31T18:01:34.510Z,6.03
2023-12-31T18:04:00.926Z,5.93
2023-12-31T18:06:27.399Z,5.87
2023-12-31T18:08:53.977Z,5.81
2023-12-31T18:11:20.460Z,5.76
2023-12-31T18:13:46.974Z,5.68
2023-12-31T18:16:13.446Z,5.71
2023-12-31T18:18:40.957Z,5.71
2023-12-31T18:21:08.079Z,5.80
2023-12-31T18:23:34.475Z,5.89
2023-12-31T18:26:00.885Z,5.91
2023-12-31T18:28:27.403Z,5.90
2023-12-31T18:30:53.909Z,5.88
2023-12-31T18:33:20.460Z,5.85
2023-12-31T18:35:46.910Z,5.78
2023-12-31T18:38:13.437Z,5.73
2023-12-31T18:40:40.476Z,5.59
2023-12-31T18:43:07.108Z,5.55
2023-12-31T18:45:33.701Z,5.44
2023-12-31T18:48:00.539Z,5.40
2023-12-31T18:50:27.051Z,5.44
2023-12-31T18:52:53.488Z,5.50
2023-12-31T18:55:19.929Z,5.57
2023-12-31T18:57:46.395Z,5.65
2023-12-31T19:00:15.771Z,5.68
2023-12-31T19:02:42.291Z,5.64
2023-12-31T19:05:08.886Z,5.58
2023-12-31T19:07:35.687Z,5.48
2023-12-31T19:10:02.239Z,5.40
2023-12-31T19:12:28.699Z,5.43
2023-12-31T19:15:00.217Z,5.47
2023-12-31T19:17:27.159Z,5.61
2023-12-31T19:19:53.786Z,5.86
2023-12-31T19:22:20.275Z,6.01
2023-12-31T19:24:46.773Z,6.04
2023-12-31T19:27:13.186Z,6.10
2023-12-31T19:29:39.616Z,6.16
2023-12-31T19:32:07.046Z,6.20
2023-12-31T19:34:34.817Z,6.15
2023-12-31T19:37:01.489Z,6.10
2023-12-31T19:39:28.046Z,6.05
2023-12-31T19:41:54.465Z,5.98
2023-12-31T19:44:32.426Z,6.04
2023-12-31T19:47:02.767Z,6.08
2023-12-31T19:49:29.615Z,6.14
2023-12-31T19:51:58.753Z,6.19
2023-12-31T19:54:25.793Z,6.21
2023-12-31T19:56:52.372Z,6.34
2023-12-31T19:59:19.955Z,6.35
2023-12-31T20:01:46.561Z,6.37
2023-12-31T20:04:13.317Z,6.44
2023-12-31T20:06:40.227Z,6.46
2023-12-31T20:09:07.872Z,6.57
2023-12-31T20:11:34.530Z,6.61
2023-12-31T20:14:00.953Z,6.61
2023-12-31T20:16:28.109Z,6.56
2023-12-31T20:18:54.637Z,6.67
2023-12-31T20:21:21.168Z,6.71
2023-12-31T20:23:47.652Z,6.68
2023-12-31T20:26:14.205Z,6.73
2023-12-31T20:28:41.469Z,6.79
2023-12-31T20:31:08.118Z,6.73
2023-12-31T20:33:34.571Z,6.66
2023-12-31T20:36:05.982Z,6.78
2023-12-31T20:38:33.028Z,6.78
2023-12-31T20:40:59.466Z,6.71
2023-12-31T20:43:26.004Z,6.74
2023-12-31T20:45:54.877Z,6.70
2023-12-31T20:48:21.543Z,6.73
2023-12-31T20:50:48.021Z,6.70
2023-12-31T20:53:14.582Z,6.58
2023-12-31T20:55:41.152Z,6.57
2023-12-31T20:58:08.253Z,6.54
2023-12-31T21:00:34.981Z,6.52
2023-12-31T21:03:01.480Z,6.44
2023-12-31T21:05:27.949Z,6.52
2023-12-31T21:07:54.473Z,6.62
2023-12-31T21:10:20.904Z,6.63
2023-12-31T21:12:47.304Z,6.64
2023-12-31T21:15:13.724Z,6.70
2023-12-31T21:17:40.224Z,6.71
2023-12-31T21:20:07.444Z,6.71
2023-12-31T21:22:33.951Z,6.75
2023-12-31T21:25:00.582Z,6.72
2023-12-31T21:27:26.963Z,6.65
2023-12-31T21:29:53.466Z,6.57
2023-12-31T21:32:19.922Z,6.50
2023-12-31T21:34:46.502Z,6.53
2023-12-31T21:37:12.965Z,6.57
2023-12-31T21:39:39.518Z,6.50
2023-12-31T21:42:05.982Z,6.49
2023-12-31T21:44:33.941Z,6.44
2023-12-31T21:47:00.949Z,6.43
2023-12-31T21:49:27.578Z,6.47
2023-12-31T21:51:55.432Z,6.34
2023-12-31T21:54:21.918Z,6.29
2023-12-31T21:57:00.373Z,6.25
2023-12-31T21:59:29.205Z,6.25
2023-12-31T22:01:55.636Z,6.24
2023-12-31T22:04:22.988Z,6.29
2023-12-31T22:06:49.412Z,6.19
2023-12-31T22:09:15.809Z,6.16
2023-12-31T22:11:43.887Z,6.13
2023-12-31T22:14:10.605Z,6.21
2023-12-31T22:16:37.104Z,6.27
2023-12-31T22:19:03.795Z,6.15
2023-12-31T22:21:30.416Z,6.21
2023-12-31T22:23:56.852Z,6.24
2023-12-31T22:26:23.485Z,6.25
2023-12-31T22:28:49.888Z,6.20
2023-12-31T22:31:16.326Z,6.18
2023-12-31T22:33:42.844Z,6.18
2023-12-31T22:36:09.402Z,6.15
2023-12-31T22:38:35.783Z,6.29
2023-12-31T22:41:08.785Z,6.30
2023-12-31T22:43:35.359Z,6.37
2023-12-31T22:46:02.186Z,6.27
2023-12-31T22:48:29.172Z,6.36
2023-12-31T22:50:55.811Z,6.32
2023-12-31T22:53:22.903Z,6.32
2023-12-31T22:55:49.538Z,6.42
2023-12-31T22:58:16.123Z,6.41
2023-12-31T23:00:42.811Z,6.39
2023-12-31T23:03:09.525Z,6.40
2023-12-31T23:05:35.983Z,6.37
2023-12-31T23:08:02.702Z,6.44
2023-12-31T23:10:30.714Z,6.40
2023-12-31T23:12:57.610Z,6.36
2023-12-31T23:15:27.336Z,6.36
2023-12-31T23:17:54.438Z,6.30
2023-12-31T23:20:21.393Z,6.26
2023-12-31T23:22:47.834Z,6.20
2023-12-31T23:25:14.330Z,6.18
2023-12-31T23:27:41.139Z,6.40
2023-12-31T23:30:08.737Z,6.33
2023-12-31T23:32:35.405Z,6.33
2023-12-31T23:35:02.019Z,6.29
2023-12-31T23:37:28.978Z,6.31
2023-12-31T23:39:55.669Z,6.33
2023-12-31T23:42:22.118Z,6.34
2023-12-31T23:44:48.583Z,6.49
2023-12-31T23:47:15.035Z,6.54
2023-12-31T23:49:41.495Z,6.66
2023-12-31T23:52:08.060Z,6.72
2023-12-31T23:54:34.654Z,6.82
2023-12-31T23:57:01.074Z,6.84
2023-12-31T23:59:27.558Z,6.90
